createdAt,value
2018-07-14T00:00:06.912Z,6.87
2018-07-14T00:02:34.027Z,7.03
2018-07-14T00:05:01.127Z,6.00
2018-07-14T00:07:28.221Z,6.30
2018-07-14T00:09:55.374Z,6.90
2018-07-14T00:12:22.500Z,9.10
2018-07-14T00:14:49.603Z,7.00
2018-07-14T00:17:16.701Z,7.07
2018-07-14T00:19:43.872Z,6.97
2018-07-14T00:22:10.957Z,6.90
2018-07-14T00:24:38.121Z,6.40
2018-07-14T00:27:05.220Z,7.40
2018-07-14T00:29:32.317Z,6.90
2018-07-14T00:31:59.417Z,6.57
2018-07-14T00:34:26.553Z,6.70
2018-07-14T00:36:53.881Z,6.40
2018-07-14T00:39:21.046Z,6.30
2018-07-14T00:41:48.500Z,6.93
2018-07-14T00:44:15.732Z,7.27
2018-07-14T00:46:42.863Z,6.73
2018-07-14T00:49:09.967Z,7.30
2018-07-14T00:51:37.161Z,7.13
2018-07-14T00:54:04.437Z,7.13
2018-07-14T00:56:31.593Z,6.90
2018-07-14T00:58:58.695Z,6.87
2018-07-14T01:01:25.794Z,7.03
2018-07-14T01:03:52.906Z,6.40
2018-07-14T01:06:20.041Z,6.97
2018-07-14T01:08:47.117Z,7.10
2018-07-14T01:11:14.219Z,7.10
2018-07-14T01:13:41.328Z,7.20
2018-07-14T01:16:08.420Z,7.33
2018-07-14T01:18:35.525Z,7.60
2018-07-14T01:21:02.636Z,7.47
2018-07-14T01:26:13.444Z,7.00
2018-07-14T01:28:40.621Z,8.87
2018-07-14T01:31:07.714Z,9.50
2018-07-14T01:33:34.837Z,7.40
2018-07-14T01:36:01.930Z,7.37
2018-07-14T01:38:29.013Z,7.87
2018-07-14T01:40:56.110Z,8.17
2018-07-14T01:43:23.209Z,7.10
2018-07-14T01:45:50.345Z,7.83
2018-07-14T01:48:17.477Z,7.60
2018-07-14T01:50:44.749Z,8.00
2018-07-14T01:53:11.824Z,6.90
2018-07-14T01:55:38.928Z,8.77
2018-07-14T01:58:06.038Z,9.43
2018-07-14T02:00:33.128Z,7.50
2018-07-14T02:03:00.225Z,7.23
2018-07-14T02:05:27.329Z,7.63
2018-07-14T02:07:54.442Z,7.27
2018-07-14T02:10:21.534Z,7.90
2018-07-14T02:12:48.629Z,9.00
2018-07-14T02:15:15.745Z,8.30
2018-07-14T02:17:42.910Z,7.63
2018-07-14T02:20:09.980Z,8.13
2018-07-14T02:22:37.098Z,7.77
2018-07-14T02:25:04.205Z,7.33
2018-07-14T02:27:31.299Z,7.60
2018-07-14T02:29:58.401Z,7.43
2018-07-14T02:32:25.629Z,7.87
2018-07-14T02:34:52.700Z,8.20
2018-07-14T02:37:19.809Z,7.60
2018-07-14T02:39:46.912Z,8.70
2018-07-14T02:42:14.029Z,7.60
2018-07-14T02:44:41.126Z,7.87
2018-07-14T02:47:08.233Z,7.80
2018-07-14T02:49:35.323Z,7.80
2018-07-14T02:52:02.441Z,7.67
2018-07-14T02:54:29.569Z,9.77
2018-07-14T02:56:56.671Z,9.03
2018-07-14T02:59:23.809Z,8.30
2018-07-14T03:01:50.922Z,7.70
2018-07-14T03:04:18.045Z,10.30
2018-07-14T03:06:45.144Z,7.83
2018-07-14T03:09:12.238Z,8.20
2018-07-14T03:11:39.334Z,7.83
2018-07-14T03:14:06.589Z,10.07
2018-07-14T03:16:33.705Z,7.90
2018-07-14T03:19:00.807Z,8.00
2018-07-14T03:21:27.940Z,7.90
2018-07-14T03:23:55.097Z,7.83
2018-07-14T03:26:22.196Z,7.70
2018-07-14T03:28:49.291Z,10.20
2018-07-14T03:31:16.386Z,7.60
2018-07-14T03:33:43.488Z,7.57
2018-07-14T03:36:10.609Z,9.20
2018-07-14T03:38:37.873Z,7.37
2018-07-14T03:41:05.075Z,7.80
2018-07-14T03:43:32.169Z,9.43
2018-07-14T03:45:59.321Z,7.80
2018-07-14T03:48:26.389Z,8.53
2018-07-14T03:50:53.484Z,8.57
2018-07-14T03:53:20.593Z,7.93
2018-07-14T03:55:47.685Z,7.83
2018-07-14T03:58:14.781Z,8.07
2018-07-14T04:00:41.938Z,7.90
2018-07-14T04:03:09.036Z,8.07
2018-07-14T04:05:36.132Z,8.53
2018-07-14T04:08:03.301Z,9.23
2018-07-14T04:10:30.417Z,7.53
2018-07-14T04:12:57.541Z,8.10
2018-07-14T04:15:24.659Z,7.70
2018-07-14T04:17:56.069Z,7.50
2018-07-14T04:20:23.506Z,8.47
2018-07-14T04:22:50.593Z,9.77
2018-07-14T04:25:17.713Z,8.70
2018-07-14T04:27:44.813Z,11.03
2018-07-14T04:30:11.918Z,7.10
2018-07-14T04:32:39.024Z,8.50
2018-07-14T04:35:06.218Z,9.30
2018-07-14T04:37:33.325Z,9.23
2018-07-14T04:40:00.423Z,7.30
2018-07-14T04:42:27.570Z,7.67
2018-07-14T04:44:54.644Z,8.77
2018-07-14T04:47:21.768Z,7.60
2018-07-14T04:49:48.886Z,7.07
2018-07-14T04:52:15.969Z,7.47
2018-07-14T04:54:43.081Z,7.60
2018-07-14T04:57:10.188Z,7.40
2018-07-14T04:59:37.289Z,7.37
2018-07-14T05:02:04.390Z,7.70
2018-07-14T05:04:31.481Z,7.90
2018-07-14T05:06:58.569Z,8.07
2018-07-14T05:09:25.794Z,6.83
2018-07-14T05:11:52.992Z,7.70
2018-07-14T05:14:20.109Z,7.57
2018-07-14T05:16:47.222Z,8.03
2018-07-14T05:19:14.316Z,8.00
2018-07-14T05:21:41.426Z,8.17
2018-07-14T05:24:08.530Z,7.67
2018-07-14T05:26:35.622Z,9.93
2018-07-14T05:29:02.736Z,8.57
2018-07-14T05:31:29.876Z,9.10
2018-07-14T05:33:57.037Z,8.23
2018-07-14T05:36:24.249Z,8.40
2018-07-14T05:38:51.353Z,8.97
2018-07-14T05:41:18.534Z,12.03
2018-07-14T05:43:45.869Z,9.77
2018-07-14T05:46:13.059Z,9.33
2018-07-14T05:48:40.270Z,10.67
2018-07-14T05:51:07.417Z,12.40
2018-07-14T05:53:34.570Z,10.80
2018-07-14T05:56:01.657Z,9.23
2018-07-14T05:58:28.788Z,13.40
2018-07-14T06:00:56.010Z,11.50
2018-07-14T06:03:23.097Z,11.30
2018-07-14T06:05:50.222Z,15.97
2018-07-14T06:08:17.321Z,12.70
2018-07-14T06:10:44.488Z,11.23
2018-07-14T06:13:11.602Z,10.10
2018-07-14T06:15:38.694Z,15.27
2018-07-14T06:18:05.828Z,11.00
2018-07-14T06:20:33.573Z,11.70
2018-07-14T06:23:01.689Z,13.63
2018-07-14T06:25:28.880Z,13.10
2018-07-14T06:27:56.219Z,19.37
2018-07-14T06:30:23.325Z,14.77
2018-07-14T06:32:50.423Z,11.70
2018-07-14T06:35:17.546Z,14.40
2018-07-14T06:37:44.685Z,15.50
2018-07-14T06:40:11.809Z,15.07
2018-07-14T06:42:39.036Z,13.70
2018-07-14T06:45:06.301Z,16.07
2018-07-14T06:47:33.418Z,17.47
2018-07-14T06:50:00.583Z,16.30
2018-07-14T06:52:27.682Z,15.00
2018-07-14T06:54:54.781Z,17.03
2018-07-14T06:57:21.872Z,13.07
2018-07-14T06:59:48.980Z,15.10
2018-07-14T07:02:16.101Z,13.70
2018-07-14T07:04:43.213Z,13.27
2018-07-14T07:07:10.357Z,14.43
2018-07-14T07:09:37.478Z,15.43
2018-07-14T07:28:43.847Z,17.20
2018-07-14T07:42:14.275Z,16.40
2018-07-14T07:44:41.376Z,14.33
2018-07-14T07:47:08.516Z,17.77
2018-07-14T07:49:35.613Z,16.10
2018-07-14T07:52:02.708Z,19.70
2018-07-14T07:54:29.805Z,17.53
2018-07-14T07:56:56.913Z,16.53
2018-07-14T07:59:24.076Z,19.60
2018-07-14T08:01:51.188Z,19.67
2018-07-14T08:04:18.298Z,17.63
2018-07-14T08:06:45.422Z,20.27
2018-07-14T08:09:12.512Z,20.30
2018-07-14T08:11:39.646Z,16.20
2018-07-14T08:14:06.794Z,17.10
2018-07-14T08:16:33.905Z,16.70
2018-07-14T08:19:01.025Z,20.30
2018-07-14T08:21:28.208Z,16.40
2018-07-14T08:23:55.442Z,24.97
2018-07-14T08:26:22.856Z,21.00
2018-07-14T08:28:49.993Z,18.33
2018-07-14T08:31:17.142Z,13.93
2018-07-14T08:33:44.319Z,19.47
2018-07-14T08:36:11.444Z,18.70
2018-07-14T08:38:39.679Z,22.03
2018-07-14T08:41:07.087Z,19.40
2018-07-14T08:43:34.738Z,18.67
2018-07-14T08:46:02.218Z,15.43
2018-07-14T08:48:29.579Z,23.70
2018-07-14T08:50:57.083Z,15.93
2018-07-14T08:53:24.428Z,14.93
2018-07-14T08:55:51.886Z,17.30
2018-07-14T08:58:21.823Z,14.73
2018-07-14T09:00:49.118Z,16.03
2018-07-14T09:03:17.327Z,21.60
2018-07-14T09:05:44.937Z,16.33
2018-07-14T09:08:12.272Z,16.93
2018-07-14T09:10:39.597Z,19.00
2018-07-14T09:13:06.802Z,13.10
2018-07-14T09:15:34.132Z,14.53
2018-07-14T09:18:01.325Z,9.53
2018-07-14T09:20:28.626Z,15.80
2018-07-14T09:22:55.854Z,14.83
2018-07-14T09:25:23.192Z,14.53
2018-07-14T09:27:50.599Z,13.70
2018-07-14T09:30:18.811Z,14.30
2018-07-14T09:32:46.056Z,24.13
2018-07-14T09:35:13.219Z,12.57
2018-07-14T09:37:40.510Z,12.10
2018-07-14T09:40:09.118Z,13.00
2018-07-14T09:42:36.373Z,13.77
2018-07-14T09:45:03.595Z,15.40
2018-07-14T09:47:30.748Z,11.53
2018-07-14T09:49:57.884Z,12.23
2018-07-14T09:52:24.994Z,13.80
2018-07-14T09:54:52.105Z,11.80
2018-07-14T09:57:20.163Z,11.00
2018-07-14T09:59:47.366Z,12.20
2018-07-14T10:02:14.652Z,12.70
2018-07-14T10:04:41.930Z,14.90
2018-07-14T10:07:10.050Z,13.97
2018-07-14T10:09:37.570Z,16.53
2018-07-14T10:12:05.120Z,14.30
2018-07-14T10:14:32.498Z,13.10
2018-07-14T10:17:00.154Z,10.70
2018-07-14T10:19:27.382Z,12.63
2018-07-14T10:21:54.598Z,14.80
2018-07-14T10:24:21.822Z,14.93
2018-07-14T10:26:49.019Z,13.80
2018-07-14T10:29:16.129Z,12.53
2018-07-14T10:31:43.282Z,15.00
2018-07-14T10:34:10.403Z,13.07
2018-07-14T10:36:37.662Z,10.80
2018-07-14T10:39:05.669Z,14.10
2018-07-14T10:41:32.787Z,12.37
2018-07-14T10:43:59.914Z,17.87
2018-07-14T10:46:27.044Z,16.70
2018-07-14T10:48:54.169Z,14.83
2018-07-14T10:51:21.274Z,14.90
2018-07-14T10:53:48.432Z,14.70
2018-07-14T10:56:15.533Z,12.97
2018-07-14T10:58:42.888Z,15.43
2018-07-14T11:01:10.009Z,28.27
2018-07-14T11:03:37.236Z,21.80
2018-07-14T11:06:04.597Z,11.30
2018-07-14T11:08:31.786Z,12.20
2018-07-14T11:10:58.945Z,11.20
2018-07-14T11:13:26.069Z,11.30
2018-07-14T11:15:53.437Z,15.50
2018-07-14T11:18:20.574Z,14.80
2018-07-14T11:20:47.691Z,14.47
2018-07-14T11:23:14.786Z,13.23
2018-07-14T11:25:42.007Z,10.97
2018-07-14T11:28:09.194Z,10.77
2018-07-14T11:30:36.278Z,9.63
2018-07-14T11:33:03.404Z,11.40
2018-07-14T11:35:30.605Z,9.60
2018-07-14T11:37:57.712Z,10.00
2018-07-14T11:40:24.901Z,15.40
2018-07-14T11:42:52.016Z,14.83
2018-07-14T11:45:19.108Z,7.97
2018-07-14T11:47:46.434Z,13.37
2018-07-14T11:50:13.545Z,9.50
2018-07-14T11:52:40.733Z,8.97
2018-07-14T11:55:07.853Z,9.03
2018-07-14T11:57:34.970Z,11.40
2018-07-14T12:00:02.088Z,12.43
2018-07-14T12:02:29.864Z,17.73
2018-07-14T12:04:56.973Z,14.90
2018-07-14T12:07:24.182Z,11.70
2018-07-14T12:09:51.209Z,12.60
2018-07-14T12:12:18.304Z,12.00
2018-07-14T12:14:45.456Z,12.43
2018-07-14T12:17:12.617Z,12.93
2018-07-14T12:19:39.741Z,8.73
2018-07-14T12:22:06.898Z,12.10
2018-07-14T12:24:33.997Z,8.50
2018-07-14T12:27:01.102Z,12.23
2018-07-14T12:29:28.214Z,9.93
2018-07-14T12:31:55.305Z,8.93
2018-07-14T12:34:22.414Z,8.23
2018-07-14T12:36:49.530Z,11.23
2018-07-14T12:39:16.652Z,11.63
2018-07-14T12:41:43.765Z,11.73
2018-07-14T12:44:10.869Z,9.10
2018-07-14T12:46:37.988Z,15.30
2018-07-14T12:49:05.078Z,6.80
2018-07-14T12:51:32.209Z,8.83
2018-07-14T12:53:59.342Z,8.80
2018-07-14T12:56:26.444Z,8.20
2018-07-14T12:58:53.557Z,9.13
2018-07-14T13:01:20.657Z,7.17
2018-07-14T13:03:47.754Z,9.70
2018-07-14T13:06:14.860Z,10.60
2018-07-14T13:08:41.983Z,12.40
2018-07-14T13:11:09.105Z,8.40
2018-07-14T13:13:36.224Z,8.77
2018-07-14T13:16:03.345Z,10.50
2018-07-14T13:18:30.498Z,10.50
2018-07-14T13:20:57.726Z,9.83
2018-07-14T13:23:24.824Z,9.40
2018-07-14T13:25:51.949Z,8.60
2018-07-14T13:28:19.060Z,18.13
2018-07-14T13:30:46.170Z,8.40
2018-07-14T13:33:13.277Z,9.17
2018-07-14T13:35:40.372Z,9.90
2018-07-14T13:38:07.496Z,9.63
2018-07-14T13:40:34.610Z,11.40
2018-07-14T13:43:02.007Z,12.47
2018-07-14T13:45:29.189Z,10.90
2018-07-14T13:47:56.293Z,7.60
2018-07-14T13:50:23.397Z,8.30
2018-07-14T13:52:50.602Z,11.00
2018-07-14T13:55:17.718Z,9.70
2018-07-14T13:57:44.809Z,9.73
2018-07-14T14:00:11.913Z,10.37
2018-07-14T14:02:39.029Z,10.00
2018-07-14T14:05:09.728Z,9.10
2018-07-14T14:07:36.891Z,9.03
2018-07-14T14:10:03.976Z,8.40
2018-07-14T14:12:31.113Z,11.73
2018-07-14T14:14:58.185Z,8.07
2018-07-14T14:17:25.340Z,9.33
2018-07-14T14:19:52.492Z,9.43
2018-07-14T14:22:19.541Z,8.70
2018-07-14T14:24:46.647Z,8.77
2018-07-14T14:27:13.771Z,8.30
2018-07-14T14:29:40.954Z,17.67
2018-07-14T14:32:08.106Z,7.90
2018-07-14T14:34:35.182Z,8.07
2018-07-14T14:37:02.344Z,8.30
2018-07-14T14:39:29.991Z,8.27
2018-07-14T14:41:57.153Z,9.87
2018-07-14T14:44:24.265Z,9.30
2018-07-14T14:46:51.393Z,10.53
2018-07-14T14:49:18.612Z,9.13
2018-07-14T14:51:45.729Z,7.77
2018-07-14T14:54:12.825Z,13.70
2018-07-14T14:56:39.949Z,7.67
2018-07-14T14:59:07.062Z,7.63
2018-07-14T15:01:34.169Z,8.30
2018-07-14T15:04:01.277Z,7.70
2018-07-14T15:06:28.386Z,7.40
2018-07-14T15:08:55.533Z,7.27
2018-07-14T15:11:22.673Z,7.10
2018-07-14T15:13:49.780Z,8.33
2018-07-14T15:16:16.877Z,8.73
2018-07-14T15:18:43.994Z,7.37
2018-07-14T15:21:11.087Z,7.40
2018-07-14T15:23:38.186Z,7.20
2018-07-14T15:26:05.325Z,7.40
2018-07-14T15:28:32.452Z,9.40
2018-07-14T15:30:59.565Z,9.00
2018-07-14T15:33:26.749Z,12.23
2018-07-14T15:35:53.869Z,8.03
2018-07-14T16:22:01.338Z,6.20
2018-07-14T16:24:28.436Z,5.83
2018-07-14T16:26:55.534Z,6.73
2018-07-14T16:29:22.726Z,5.97
2018-07-14T16:31:49.815Z,5.03
2018-07-14T16:34:16.915Z,5.13
2018-07-14T16:36:44.040Z,4.50
2018-07-14T16:39:11.176Z,5.00
2018-07-14T16:41:38.545Z,5.70
2018-07-14T16:44:05.657Z,6.03
2018-07-14T16:46:33.001Z,4.97
2018-07-14T16:49:00.149Z,4.50
2018-07-14T16:51:27.263Z,5.03
2018-07-14T16:53:54.360Z,4.13
2018-07-14T16:56:21.525Z,4.87
2018-07-14T16:58:48.679Z,4.70
2018-07-14T17:01:15.740Z,4.83
2018-07-14T17:03:42.838Z,5.27
2018-07-14T17:06:09.945Z,8.87
2018-07-14T17:08:37.069Z,4.27
2018-07-14T17:11:04.209Z,4.83
2018-07-14T17:13:31.290Z,5.23
2018-07-14T17:15:58.385Z,4.77
2018-07-14T17:18:25.506Z,4.83
2018-07-14T17:20:52.665Z,4.53
2018-07-14T17:23:19.729Z,3.90
2018-07-14T17:25:46.836Z,4.17
2018-07-14T17:28:13.933Z,4.60
2018-07-14T17:30:41.037Z,4.60
2018-07-14T17:33:08.140Z,4.63
2018-07-14T17:35:35.280Z,4.73
2018-07-14T17:38:02.390Z,4.23
2018-07-14T17:40:29.505Z,4.10
2018-07-14T17:42:56.609Z,4.27
2018-07-14T17:45:23.729Z,4.63
2018-07-14T17:47:50.873Z,4.17
2018-07-14T17:50:17.970Z,4.13
2018-07-14T17:52:45.074Z,4.00
2018-07-14T17:55:12.169Z,4.17
2018-07-14T17:57:39.290Z,4.80
2018-07-14T18:00:06.393Z,7.13
2018-07-14T18:02:33.516Z,4.60
2018-07-14T18:05:00.671Z,7.03
2018-07-14T18:07:27.747Z,5.03
2018-07-14T18:09:54.905Z,4.07
2018-07-14T18:12:22.000Z,4.13
2018-07-14T18:14:49.179Z,6.43
2018-07-14T18:17:16.268Z,3.93
2018-07-14T18:19:43.380Z,4.20
2018-07-14T18:22:10.558Z,4.50
2018-07-14T18:24:37.723Z,4.87
2018-07-14T18:27:04.939Z,4.37
2018-07-14T18:29:32.045Z,4.07
2018-07-14T18:31:59.472Z,5.40
2018-07-14T18:34:26.609Z,5.87
2018-07-14T18:36:53.714Z,4.80
2018-07-14T18:39:20.872Z,6.23
2018-07-14T18:41:47.973Z,4.60
2018-07-14T18:44:15.121Z,7.17
2018-07-14T18:46:42.241Z,7.03
2018-07-14T18:49:09.346Z,7.20
2018-07-14T18:51:36.447Z,5.40
2018-07-14T18:54:03.585Z,5.37
2018-07-14T18:56:30.863Z,5.37
2018-07-14T18:58:57.986Z,4.90
2018-07-14T19:01:25.084Z,5.23
2018-07-14T19:03:52.209Z,5.17
2018-07-14T19:06:19.320Z,4.80
2018-07-14T19:08:46.462Z,4.80
2018-07-14T19:11:13.524Z,6.10
2018-07-14T19:13:40.803Z,9.27
2018-07-14T19:16:07.897Z,4.90
2018-07-14T19:18:35.039Z,5.03
2018-07-14T19:21:02.170Z,7.27
2018-07-14T19:23:29.481Z,6.43
2018-07-14T19:25:56.629Z,5.90
2018-07-14T19:28:23.682Z,4.63
2018-07-14T19:30:50.765Z,5.00
2018-07-14T19:33:17.905Z,5.00
2018-07-14T19:35:45.032Z,4.80
2018-07-14T19:38:12.326Z,4.60
2018-07-14T19:40:39.431Z,4.83
2018-07-14T19:43:06.524Z,4.97
2018-07-14T19:45:33.650Z,4.90
2018-07-14T19:48:00.734Z,5.73
2018-07-14T19:50:27.829Z,4.90
2018-07-14T19:52:54.941Z,4.67
2018-07-14T19:55:22.045Z,5.30
2018-07-14T19:57:49.124Z,5.53
2018-07-14T20:00:16.241Z,6.37
2018-07-14T20:02:43.346Z,5.67
2018-07-14T20:05:10.472Z,6.20
2018-07-14T20:07:37.553Z,5.73
2018-07-14T20:10:04.729Z,5.77
2018-07-14T20:12:31.829Z,5.70
2018-07-14T20:14:58.933Z,5.30
2018-07-14T20:17:26.076Z,5.73
2018-07-14T20:19:53.172Z,6.30
2018-07-14T20:22:20.273Z,5.53
2018-07-14T20:24:47.387Z,5.97
2018-07-14T20:27:14.513Z,7.57
2018-07-14T20:29:41.735Z,6.33
2018-07-14T20:32:08.869Z,7.00
2018-07-14T20:34:35.969Z,7.60
2018-07-14T20:37:03.089Z,7.13
2018-07-14T20:39:30.496Z,6.27
2018-07-14T20:41:57.618Z,5.87
2018-07-14T20:44:24.732Z,8.47
2018-07-14T20:46:51.856Z,11.30
2018-07-14T20:49:18.986Z,10.90
2018-07-14T20:51:46.112Z,7.20
2018-07-14T20:54:13.227Z,6.47
2018-07-14T20:56:40.452Z,6.90
2018-07-14T20:59:07.932Z,7.20
2018-07-14T21:01:35.090Z,8.13
2018-07-14T21:04:02.181Z,9.10
2018-07-14T21:06:29.287Z,7.60
2018-07-14T21:08:56.393Z,5.90
2018-07-14T21:11:23.520Z,6.10
2018-07-14T21:13:50.652Z,7.53
2018-07-14T21:16:17.910Z,5.63
2018-07-14T21:18:45.009Z,5.80
2018-07-14T21:21:12.159Z,6.10
2018-07-14T21:23:39.258Z,6.57
2018-07-14T21:26:06.388Z,5.37
2018-07-14T21:28:33.477Z,5.90
2018-07-14T21:31:00.615Z,6.13
2018-07-14T21:33:27.709Z,10.10
2018-07-14T21:35:54.861Z,6.77
2018-07-14T21:38:21.993Z,6.80
2018-07-14T21:40:49.103Z,6.80
2018-07-14T21:43:16.208Z,6.90
2018-07-14T21:45:43.309Z,6.60
2018-07-14T21:48:10.417Z,7.17
2018-07-14T21:50:37.548Z,6.47
2018-07-14T21:53:04.656Z,6.57
2018-07-14T21:55:31.761Z,6.23
2018-07-14T21:57:58.888Z,8.83
2018-07-14T22:00:32.770Z,6.80
2018-07-14T22:03:00.505Z,6.00
2018-07-14T22:05:27.615Z,6.33
2018-07-14T22:07:54.705Z,6.07
2018-07-14T22:10:22.106Z,6.60
2018-07-14T22:12:49.290Z,6.47
2018-07-14T22:15:16.457Z,6.30
2018-07-14T22:17:43.579Z,8.47
2018-07-14T22:20:10.777Z,8.43
2018-07-14T22:22:37.886Z,5.80
2018-07-14T22:25:04.990Z,5.90
2018-07-14T22:27:32.110Z,5.90
2018-07-14T22:29:59.201Z,6.03
2018-07-14T22:32:26.545Z,7.00
2018-07-14T22:34:53.657Z,9.27
2018-07-14T22:37:20.757Z,7.30
2018-07-14T22:39:47.860Z,7.47
2018-07-14T22:42:15.027Z,6.00
2018-07-14T22:44:42.133Z,10.53
2018-07-14T22:47:09.290Z,8.47
2018-07-14T22:49:36.502Z,6.13
2018-07-14T22:52:03.610Z,6.13
2018-07-14T22:54:32.398Z,9.10
2018-07-14T22:56:59.574Z,6.20
2018-07-14T22:59:26.704Z,7.17
2018-07-14T23:01:53.820Z,7.83
2018-07-14T23:04:20.958Z,5.57
2018-07-14T23:06:48.069Z,8.43
2018-07-14T23:09:15.178Z,7.03
2018-07-14T23:11:42.300Z,8.70
2018-07-14T23:14:09.461Z,6.13
2018-07-14T23:16:36.574Z,8.67
2018-07-14T23:19:03.669Z,5.60
2018-07-14T23:21:30.761Z,6.27
2018-07-14T23:23:57.869Z,5.47
2018-07-14T23:26:24.985Z,5.73
2018-07-14T23:28:52.104Z,8.70
2018-07-14T23:31:19.229Z,5.57
2018-07-14T23:33:46.524Z,6.60
2018-07-14T23:36:13.624Z,6.37
2018-07-14T23:38:40.733Z,6.47
2018-07-14T23:41:07.829Z,5.70
2018-07-14T23:43:34.950Z,5.60
2018-07-14T23:46:02.093Z,6.30
2018-07-14T23:48:29.205Z,10.20
2018-07-14T23:50:56.313Z,10.50
2018-07-14T23:53:23.501Z,6.07
2018-07-14T23:55:50.601Z,6.57
2018-07-14T23:58:17.708Z,6.00
